Terminal Aerodrome Forecast
Issued by NWS

Home | Current Version | Previous Version | Text Only | Print | Product List | Glossary On
Versions: 1 2 3 4 5 6 7 8 9 10 11 12 13 14 15 16 17 18 19 20 21
000
FTUS43 KAPX 240520
TAFPLN
TAF
KPLN 240520Z 2406/2506 VRB03KT P6SM FEW250
      TEMPO 2406/2410 3SM BR
     FM241000 VRB03KT P6SM FEW250
      TEMPO 2410/2412 3SM BR
     FM241400 24007KT P6SM FEW040 FEW250
     FM242200 VRB03KT P6SM FEW030 FEW250=

USA.gov is the U.S. government's official web portal to all federal, state and local government web resources and services.